Aérodrome :
LOGIN :

S'inscrire | Disclaimer

   EN    FR    IT 

 










Légende :    VFR   VFR Marginal   IFR   IFR Intensif   IFR Très Intensif
Visi : 
Plafond : 
>= 8 km
>= 3000ft
5 à 8 km
1000 à 3000 ft
1500m à 5 km
500 à 1000 ft
800 à 1500m
200 à 500 ft
< 800m
< 200 ft
Symboles :   Orages  Brouillard  Fortes neiges  Fortes précipitations  Vent > 20 kt
SIGMETs :   Divers  Orages  Givrage  Turbulence  Onde Orograph.  Cendres Volcan.







- Altitude de l'aérodrome : 433 ft
- Code IATA : CCF
- Voir les cartes d'approche


LFMK - Carcassonne

DERNIER METAR :
  • 242300Z AUTO 10009KT 9999 OVC014 18/15 Q1016

METARs EXPIRÉS :
  • 242230Z AUTO 09011KT 070V140 9999 OVC013 18/15 Q1016
  • 242200Z AUTO 09010KT 9999 OVC013 18/15 Q1017
  • 242130Z AUTO 09010KT 9999 SCT014 BKN031 18/15 Q1017
  • 242100Z AUTO 09007KT 9000 BKN014 18/15 Q1017
  • 242030Z AUTO 09009KT CAVOK 18/15 Q1017

TAF TAF LFMK
Valide du 24 à 09h jusqu'au 25 à 09h UTC


240800Z 2409/2509 09012KT CAVOK
TEMPO 2409/2411 BKN010
TEMPO 2422/2506 BKN008
TEMPO 2506/2509 09015G25KT BKN010
Pas de NOTAMs connus pour ce terrain.



MET'MAP, la Météo Aéronautique d'un coup d'oeil ! - Copyright ORBIFLY Décembre 2007 - Disclaimer

ORBIFLY MET'MAP TEAM :

Programmation & Développement : Alexandra Zaïnal
Conception & Développement : Baudouin d'Aumeries
Co-Programmation & Développement : Marc-Olivier Méhu
Soutien technique & logistique : Manuel Goepfert

Contact : metmap@orbifly.com




SOURCES & CREDITS :

   NOAA